sensor_id;sensor_type;location;lat;lon;timestamp;P1;durP1;ratioP1;P2;durP2;ratioP2
45328;SDS011;31063;48.356;10.896;2022-10-17T00:02:00;8.03;;;4.47;;
45328;SDS011;31063;48.356;10.896;2022-10-17T00:04:26;6.80;;;4.50;;
45328;SDS011;31063;48.356;10.896;2022-10-17T00:06:51;9.90;;;4.37;;
45328;SDS011;31063;48.356;10.896;2022-10-17T00:09:17;9.40;;;4.07;;
45328;SDS011;31063;48.356;10.896;2022-10-17T00:11:42;5.83;;;4.23;;
45328;SDS011;31063;48.356;10.896;2022-10-17T00:14:08;10.60;;;4.70;;
45328;SDS011;31063;48.356;10.896;2022-10-17T00:16:34;6.30;;;4.20;;
45328;SDS011;31063;48.356;10.896;2022-10-17T00:19:01;6.03;;;4.18;;
45328;SDS011;31063;48.356;10.896;2022-10-17T00:21:29;7.00;;;3.90;;
45328;SDS011;31063;48.356;10.896;2022-10-17T00:23:55;5.47;;;4.15;;
45328;SDS011;31063;48.356;10.896;2022-10-17T00:26:20;10.07;;;4.90;;
45328;SDS011;31063;48.356;10.896;2022-10-17T00:28:47;6.35;;;4.25;;
45328;SDS011;31063;48.356;10.896;2022-10-17T00:31:14;8.27;;;4.40;;
45328;SDS011;31063;48.356;10.896;2022-10-17T00:33:40;7.00;;;4.25;;
45328;SDS011;31063;48.356;10.896;2022-10-17T00:36:11;10.18;;;4.65;;
45328;SDS011;31063;48.356;10.896;2022-10-17T00:38:42;5.38;;;4.25;;
45328;SDS011;31063;48.356;10.896;2022-10-17T00:41:11;6.97;;;4.82;;
45328;SDS011;31063;48.356;10.896;2022-10-17T00:46:18;7.72;;;4.63;;
45328;SDS011;31063;48.356;10.896;2022-10-17T00:48:44;8.75;;;4.22;;
45328;SDS011;31063;48.356;10.896;2022-10-17T00:51:12;6.50;;;4.22;;
45328;SDS011;31063;48.356;10.896;2022-10-17T00:53:39;6.43;;;4.45;;
45328;SDS011;31063;48.356;10.896;2022-10-17T00:56:05;6.68;;;4.20;;
45328;SDS011;31063;48.356;10.896;2022-10-17T00:58:31;6.47;;;4.85;;
45328;SDS011;31063;48.356;10.896;2022-10-17T01:00:56;7.83;;;4.70;;
45328;SDS011;31063;48.356;10.896;2022-10-17T01:03:22;7.70;;;4.30;;
45328;SDS011;31063;48.356;10.896;2022-10-17T01:05:48;9.88;;;4.20;;
45328;SDS011;31063;48.356;10.896;2022-10-17T01:08:14;6.40;;;4.32;;
45328;SDS011;31063;48.356;10.896;2022-10-17T01:13:36;9.40;;;4.25;;
45328;SDS011;31063;48.356;10.896;2022-10-17T01:16:10;5.60;;;4.30;;
45328;SDS011;31063;48.356;10.896;2022-10-17T01:19:34;5.60;;;3.97;;
45328;SDS011;31063;48.356;10.896;2022-10-17T01:21:59;7.60;;;4.72;;
45328;SDS011;31063;48.356;10.896;2022-10-17T01:24:48;10.35;;;5.28;;
45328;SDS011;31063;48.356;10.896;2022-10-17T01:27:36;8.52;;;5.30;;
45328;SDS011;31063;48.356;10.896;2022-10-17T01:33:10;7.57;;;5.13;;
45328;SDS011;31063;48.356;10.896;2022-10-17T01:35:45;9.82;;;5.30;;
45328;SDS011;31063;48.356;10.896;2022-10-17T01:38:19;9.60;;;4.78;;
45328;SDS011;31063;48.356;10.896;2022-10-17T01:40:54;8.02;;;5.05;;
45328;SDS011;31063;48.356;10.896;2022-10-17T01:46:06;6.22;;;4.97;;
45328;SDS011;31063;48.356;10.896;2022-10-17T01:48:41;6.68;;;4.43;;
45328;SDS011;31063;48.356;10.896;2022-10-17T01:51:16;7.18;;;4.57;;
45328;SDS011;31063;48.356;10.896;2022-10-17T01:53:53;12.15;;;5.13;;
45328;SDS011;31063;48.356;10.896;2022-10-17T01:56:29;7.60;;;4.82;;
45328;SDS011;31063;48.356;10.896;2022-10-17T01:58:59;6.28;;;4.60;;
45328;SDS011;31063;48.356;10.896;2022-10-17T02:01:28;6.32;;;4.40;;
45328;SDS011;31063;48.356;10.896;2022-10-17T02:03:55;9.48;;;5.38;;
45328;SDS011;31063;48.356;10.896;2022-10-17T02:06:23;9.38;;;5.00;;
45328;SDS011;31063;48.356;10.896;2022-10-17T02:08:49;9.53;;;4.60;;
45328;SDS011;31063;48.356;10.896;2022-10-17T02:11:17;9.35;;;4.70;;
45328;SDS011;31063;48.356;10.896;2022-10-17T02:16:42;7.13;;;4.30;;
45328;SDS011;31063;48.356;10.896;2022-10-17T02:29:48;5.93;;;3.87;;
45328;SDS011;31063;48.356;10.896;2022-10-17T02:32:23;5.43;;;4.05;;
45328;SDS011;31063;48.356;10.896;2022-10-17T02:34:58;7.35;;;3.90;;
45328;SDS011;31063;48.356;10.896;2022-10-17T02:37:27;6.32;;;3.92;;
45328;SDS011;31063;48.356;10.896;2022-10-17T02:39:55;6.18;;;3.97;;
45328;SDS011;31063;48.356;10.896;2022-10-17T02:42:23;5.10;;;3.90;;
45328;SDS011;31063;48.356;10.896;2022-10-17T02:44:51;7.13;;;3.80;;
45328;SDS011;31063;48.356;10.896;2022-10-17T02:47:24;4.30;;;3.40;;
45328;SDS011;31063;48.356;10.896;2022-10-17T02:49:56;7.70;;;4.32;;
45328;SDS011;31063;48.356;10.896;2022-10-17T02:52:35;8.38;;;4.10;;
45328;SDS011;31063;48.356;10.896;2022-10-17T02:55:24;5.80;;;3.80;;
45328;SDS011;31063;48.356;10.896;2022-10-17T02:58:03;5.10;;;3.60;;
45328;SDS011;31063;48.356;10.896;2022-10-17T03:00:32;6.00;;;3.75;;
45328;SDS011;31063;48.356;10.896;2022-10-17T03:02:59;4.20;;;3.35;;
45328;SDS011;31063;48.356;10.896;2022-10-17T03:05:26;6.03;;;3.67;;
45328;SDS011;31063;48.356;10.896;2022-10-17T03:07:53;7.97;;;3.80;;
45328;SDS011;31063;48.356;10.896;2022-10-17T03:12:45;6.90;;;4.18;;
45328;SDS011;31063;48.356;10.896;2022-10-17T03:15:11;7.77;;;4.40;;
45328;SDS011;31063;48.356;10.896;2022-10-17T03:17:37;6.38;;;4.00;;
45328;SDS011;31063;48.356;10.896;2022-10-17T03:20:03;5.97;;;4.13;;
45328;SDS011;31063;48.356;10.896;2022-10-17T03:22:30;7.38;;;4.25;;
45328;SDS011;31063;48.356;10.896;2022-10-17T03:24:56;10.35;;;4.10;;
45328;SDS011;31063;48.356;10.896;2022-10-17T03:27:22;7.35;;;3.88;;
45328;SDS011;31063;48.356;10.896;2022-10-17T03:29:48;10.88;;;4.47;;
45328;SDS011;31063;48.356;10.896;2022-10-17T03:32:14;10.67;;;4.73;;
45328;SDS011;31063;48.356;10.896;2022-10-17T03:34:39;6.70;;;4.77;;
45328;SDS011;31063;48.356;10.896;2022-10-17T03:37:05;7.47;;;4.70;;
45328;SDS011;31063;48.356;10.896;2022-10-17T03:39:31;9.43;;;4.20;;
45328;SDS011;31063;48.356;10.896;2022-10-17T03:41:56;5.43;;;4.47;;
45328;SDS011;31063;48.356;10.896;2022-10-17T03:44:22;7.67;;;4.67;;
45328;SDS011;31063;48.356;10.896;2022-10-17T03:46:47;8.00;;;4.90;;
45328;SDS011;31063;48.356;10.896;2022-10-17T03:49:13;7.40;;;5.00;;
45328;SDS011;31063;48.356;10.896;2022-10-17T03:51:38;8.50;;;4.57;;
45328;SDS011;31063;48.356;10.896;2022-10-17T03:54:04;8.90;;;4.40;;
45328;SDS011;31063;48.356;10.896;2022-10-17T03:56:30;6.30;;;4.07;;
45328;SDS011;31063;48.356;10.896;2022-10-17T03:58:55;6.23;;;4.60;;
45328;SDS011;31063;48.356;10.896;2022-10-17T04:01:21;9.87;;;4.87;;
45328;SDS011;31063;48.356;10.896;2022-10-17T04:03:48;10.15;;;4.82;;
45328;SDS011;31063;48.356;10.896;2022-10-17T04:06:14;6.85;;;4.40;;
45328;SDS011;31063;48.356;10.896;2022-10-17T04:08:40;5.87;;;4.03;;
45328;SDS011;31063;48.356;10.896;2022-10-17T04:11:07;10.32;;;4.32;;
45328;SDS011;31063;48.356;10.896;2022-10-17T04:13:33;8.15;;;4.65;;
45328;SDS011;31063;48.356;10.896;2022-10-17T04:16:06;6.60;;;4.07;;
45328;SDS011;31063;48.356;10.896;2022-10-17T04:18:33;5.82;;;4.30;;
45328;SDS011;31063;48.356;10.896;2022-10-17T04:21:02;5.93;;;4.33;;
45328;SDS011;31063;48.356;10.896;2022-10-17T04:23:29;5.93;;;4.88;;
45328;SDS011;31063;48.356;10.896;2022-10-17T04:25:56;8.57;;;4.75;;
45328;SDS011;31063;48.356;10.896;2022-10-17T04:28:22;6.72;;;4.63;;
45328;SDS011;31063;48.356;10.896;2022-10-17T04:30:56;8.43;;;4.45;;
45328;SDS011;31063;48.356;10.896;2022-10-17T04:33:29;5.57;;;4.05;;
45328;SDS011;31063;48.356;10.896;2022-10-17T04:38:21;5.13;;;3.95;;
45328;SDS011;31063;48.356;10.896;2022-10-17T04:40:47;7.23;;;4.20;;
45328;SDS011;31063;48.356;10.896;2022-10-17T04:43:12;9.23;;;4.07;;
45328;SDS011;31063;48.356;10.896;2022-10-17T04:45:38;5.10;;;4.30;;
45328;SDS011;31063;48.356;10.896;2022-10-17T04:48:04;10.97;;;5.37;;
45328;SDS011;31063;48.356;10.896;2022-10-17T04:50:29;5.20;;;4.03;;
45328;SDS011;31063;48.356;10.896;2022-10-17T04:52:55;5.90;;;4.40;;
45328;SDS011;31063;48.356;10.896;2022-10-17T04:55:20;8.97;;;5.03;;
45328;SDS011;31063;48.356;10.896;2022-10-17T04:57:46;5.97;;;4.10;;
45328;SDS011;31063;48.356;10.896;2022-10-17T05:00:12;7.40;;;4.10;;
45328;SDS011;31063;48.356;10.896;2022-10-17T05:02:38;8.18;;;4.47;;
45328;SDS011;31063;48.356;10.896;2022-10-17T05:05:03;9.53;;;4.90;;
45328;SDS011;31063;48.356;10.896;2022-10-17T05:07:29;6.38;;;4.22;;
45328;SDS011;31063;48.356;10.896;2022-10-17T05:09:55;8.93;;;4.30;;
45328;SDS011;31063;48.356;10.896;2022-10-17T05:12:22;8.02;;;4.15;;
45328;SDS011;31063;48.356;10.896;2022-10-17T05:14:48;8.57;;;4.13;;
45328;SDS011;31063;48.356;10.896;2022-10-17T05:17:14;7.20;;;3.77;;
45328;SDS011;31063;48.356;10.896;2022-10-17T05:19:40;8.10;;;4.05;;
45328;SDS011;31063;48.356;10.896;2022-10-17T05:22:06;7.77;;;3.83;;
45328;SDS011;31063;48.356;10.896;2022-10-17T05:24:31;8.23;;;4.70;;
45328;SDS011;31063;48.356;10.896;2022-10-17T05:26:57;6.03;;;4.17;;
45328;SDS011;31063;48.356;10.896;2022-10-17T05:29:23;8.00;;;4.20;;
45328;SDS011;31063;48.356;10.896;2022-10-17T05:31:48;7.13;;;4.47;;
45328;SDS011;31063;48.356;10.896;2022-10-17T05:34:14;12.27;;;4.93;;
45328;SDS011;31063;48.356;10.896;2022-10-17T05:36:39;6.53;;;4.47;;
45328;SDS011;31063;48.356;10.896;2022-10-17T05:39:05;8.90;;;4.70;;
45328;SDS011;31063;48.356;10.896;2022-10-17T05:41:31;8.73;;;4.40;;
45328;SDS011;31063;48.356;10.896;2022-10-17T05:43:56;9.80;;;4.47;;
45328;SDS011;31063;48.356;10.896;2022-10-17T05:46:22;6.07;;;4.20;;
45328;SDS011;31063;48.356;10.896;2022-10-17T05:51:14;8.73;;;4.22;;
45328;SDS011;31063;48.356;10.896;2022-10-17T05:53:40;6.00;;;4.50;;
45328;SDS011;31063;48.356;10.896;2022-10-17T05:56:07;7.82;;;4.43;;
45328;SDS011;31063;48.356;10.896;2022-10-17T05:58:34;9.70;;;4.60;;
45328;SDS011;31063;48.356;10.896;2022-10-17T06:01:01;10.52;;;4.32;;
45328;SDS011;31063;48.356;10.896;2022-10-17T06:03:28;11.85;;;5.05;;
45328;SDS011;31063;48.356;10.896;2022-10-17T06:05:54;6.65;;;4.13;;
45328;SDS011;31063;48.356;10.896;2022-10-17T06:08:20;7.40;;;4.30;;
45328;SDS011;31063;48.356;10.896;2022-10-17T06:10:47;6.78;;;4.05;;
45328;SDS011;31063;48.356;10.896;2022-10-17T06:13:13;10.60;;;4.13;;
45328;SDS011;31063;48.356;10.896;2022-10-17T06:15:40;8.13;;;4.30;;
45328;SDS011;31063;48.356;10.896;2022-10-17T06:18:05;8.00;;;4.27;;
45328;SDS011;31063;48.356;10.896;2022-10-17T06:20:31;7.43;;;3.67;;
45328;SDS011;31063;48.356;10.896;2022-10-17T06:22:57;7.20;;;4.10;;
45328;SDS011;31063;48.356;10.896;2022-10-17T06:25:22;6.07;;;4.13;;
45328;SDS011;31063;48.356;10.896;2022-10-17T06:27:48;9.23;;;4.67;;
45328;SDS011;31063;48.356;10.896;2022-10-17T06:30:13;12.53;;;4.43;;
45328;SDS011;31063;48.356;10.896;2022-10-17T06:32:39;8.67;;;4.63;;
45328;SDS011;31063;48.356;10.896;2022-10-17T06:35:05;7.20;;;4.00;;
45328;SDS011;31063;48.356;10.896;2022-10-17T06:37:31;11.18;;;4.03;;
45328;SDS011;31063;48.356;10.896;2022-10-17T06:39:57;6.15;;;4.30;;
45328;SDS011;31063;48.356;10.896;2022-10-17T06:42:23;12.38;;;4.40;;
45328;SDS011;31063;48.356;10.896;2022-10-17T06:44:49;9.10;;;4.07;;
45328;SDS011;31063;48.356;10.896;2022-10-17T06:47:14;9.70;;;3.77;;
45328;SDS011;31063;48.356;10.896;2022-10-17T06:49:40;7.17;;;4.20;;
45328;SDS011;31063;48.356;10.896;2022-10-17T06:52:05;8.10;;;4.00;;
45328;SDS011;31063;48.356;10.896;2022-10-17T06:54:31;7.83;;;3.93;;
45328;SDS011;31063;48.356;10.896;2022-10-17T06:56:57;6.80;;;3.77;;
45328;SDS011;31063;48.356;10.896;2022-10-17T06:59:22;6.63;;;3.97;;
45328;SDS011;31063;48.356;10.896;2022-10-17T07:01:48;6.90;;;4.20;;
45328;SDS011;31063;48.356;10.896;2022-10-17T07:04:13;7.50;;;3.43;;
45328;SDS011;31063;48.356;10.896;2022-10-17T07:06:39;8.53;;;4.70;;
45328;SDS011;31063;48.356;10.896;2022-10-17T07:09:05;7.87;;;4.73;;
45328;SDS011;31063;48.356;10.896;2022-10-17T07:11:31;10.07;;;4.45;;
45328;SDS011;31063;48.356;10.896;2022-10-17T07:13:57;12.65;;;4.50;;
45328;SDS011;31063;48.356;10.896;2022-10-17T07:16:23;8.52;;;4.32;;
45328;SDS011;31063;48.356;10.896;2022-10-17T07:18:49;8.87;;;4.37;;
45328;SDS011;31063;48.356;10.896;2022-10-17T07:23:41;7.03;;;4.32;;
45328;SDS011;31063;48.356;10.896;2022-10-17T07:26:07;9.13;;;4.20;;
45328;SDS011;31063;48.356;10.896;2022-10-17T07:28:38;8.52;;;4.40;;
45328;SDS011;31063;48.356;10.896;2022-10-17T07:31:05;12.00;;;4.18;;
45328;SDS011;31063;48.356;10.896;2022-10-17T07:33:33;11.80;;;4.50;;
45328;SDS011;31063;48.356;10.896;2022-10-17T07:35:59;11.37;;;4.33;;
45328;SDS011;31063;48.356;10.896;2022-10-17T07:40:53;12.40;;;4.07;;
45328;SDS011;31063;48.356;10.896;2022-10-17T07:43:19;7.22;;;4.60;;
45328;SDS011;31063;48.356;10.896;2022-10-17T07:45:45;7.97;;;4.07;;
45328;SDS011;31063;48.356;10.896;2022-10-17T07:48:10;4.70;;;3.97;;
45328;SDS011;31063;48.356;10.896;2022-10-17T07:50:36;6.17;;;4.10;;
45328;SDS011;31063;48.356;10.896;2022-10-17T07:53:01;8.70;;;4.57;;
45328;SDS011;31063;48.356;10.896;2022-10-17T07:55:27;6.97;;;4.33;;
45328;SDS011;31063;48.356;10.896;2022-10-17T07:57:52;8.07;;;3.60;;
45328;SDS011;31063;48.356;10.896;2022-10-17T08:00:18;7.67;;;4.07;;
45328;SDS011;31063;48.356;10.896;2022-10-17T08:02:44;7.13;;;3.70;;
45328;SDS011;31063;48.356;10.896;2022-10-17T08:05:09;13.37;;;5.50;;
45328;SDS011;31063;48.356;10.896;2022-10-17T08:07:35;9.17;;;4.90;;
45328;SDS011;31063;48.356;10.896;2022-10-17T08:10:01;7.13;;;4.13;;
45328;SDS011;31063;48.356;10.896;2022-10-17T08:12:26;8.27;;;4.40;;
45328;SDS011;31063;48.356;10.896;2022-10-17T08:14:55;7.63;;;3.72;;
45328;SDS011;31063;48.356;10.896;2022-10-17T08:17:21;6.30;;;3.80;;
45328;SDS011;31063;48.356;10.896;2022-10-17T08:19:47;7.20;;;3.80;;
45328;SDS011;31063;48.356;10.896;2022-10-17T08:22:12;11.33;;;4.07;;
45328;SDS011;31063;48.356;10.896;2022-10-17T08:24:38;6.10;;;3.27;;
45328;SDS011;31063;48.356;10.896;2022-10-17T08:27:03;6.97;;;4.27;;
45328;SDS011;31063;48.356;10.896;2022-10-17T08:29:37;11.05;;;4.05;;
45328;SDS011;31063;48.356;10.896;2022-10-17T08:32:03;7.70;;;3.97;;
45328;SDS011;31063;48.356;10.896;2022-10-17T08:34:29;8.10;;;3.80;;
45328;SDS011;31063;48.356;10.896;2022-10-17T08:36:54;7.27;;;3.57;;
45328;SDS011;31063;48.356;10.896;2022-10-17T08:39:20;5.67;;;3.23;;
45328;SDS011;31063;48.356;10.896;2022-10-17T08:44:43;9.80;;;4.25;;
45328;SDS011;31063;48.356;10.896;2022-10-17T08:47:39;12.77;;;3.70;;
45328;SDS011;31063;48.356;10.896;2022-10-17T08:50:51;12.20;;;3.55;;
45328;SDS011;31063;48.356;10.896;2022-10-17T08:53:19;8.35;;;3.47;;
45328;SDS011;31063;48.356;10.896;2022-10-17T08:55:45;9.07;;;3.47;;
45328;SDS011;31063;48.356;10.896;2022-10-17T08:58:22;6.72;;;3.13;;
45328;SDS011;31063;48.356;10.896;2022-10-17T09:06:25;3.90;;;2.80;;
45328;SDS011;31063;48.356;10.896;2022-10-17T09:20:28;6.75;;;2.50;;
45328;SDS011;31063;48.356;10.896;2022-10-17T09:23:08;7.07;;;2.70;;
45328;SDS011;31063;48.356;10.896;2022-10-17T09:25:40;3.72;;;2.30;;
45328;SDS011;31063;48.356;10.896;2022-10-17T09:30:43;3.80;;;2.40;;
45328;SDS011;31063;48.356;10.896;2022-10-17T09:33:18;8.43;;;2.80;;
45328;SDS011;31063;48.356;10.896;2022-10-17T09:35:46;4.35;;;2.50;;
45328;SDS011;31063;48.356;10.896;2022-10-17T09:38:19;8.02;;;2.72;;
45328;SDS011;31063;48.356;10.896;2022-10-17T09:40:56;4.40;;;2.10;;
45328;SDS011;31063;48.356;10.896;2022-10-17T09:43:25;3.42;;;2.45;;
45328;SDS011;31063;48.356;10.896;2022-10-17T09:51:10;4.05;;;2.30;;
45328;SDS011;31063;48.356;10.896;2022-10-17T09:53:38;2.72;;;2.00;;
45328;SDS011;31063;48.356;10.896;2022-10-17T09:56:08;5.10;;;2.33;;
45328;SDS011;31063;48.356;10.896;2022-10-17T09:58:50;2.35;;;1.73;;
45328;SDS011;31063;48.356;10.896;2022-10-17T10:03:47;4.22;;;2.33;;
45328;SDS011;31063;48.356;10.896;2022-10-17T10:06:31;3.20;;;2.30;;
45328;SDS011;31063;48.356;10.896;2022-10-17T10:08:57;5.33;;;2.17;;
45328;SDS011;31063;48.356;10.896;2022-10-17T10:11:24;2.60;;;2.00;;
45328;SDS011;31063;48.356;10.896;2022-10-17T10:14:11;5.25;;;2.20;;
45328;SDS011;31063;48.356;10.896;2022-10-17T10:16:44;4.10;;;2.10;;
45328;SDS011;31063;48.356;10.896;2022-10-17T10:19:30;2.35;;;2.10;;
45328;SDS011;31063;48.356;10.896;2022-10-17T10:22:02;2.75;;;2.20;;
45328;SDS011;31063;48.356;10.896;2022-10-17T10:24:38;8.27;;;2.70;;
45328;SDS011;31063;48.356;10.896;2022-10-17T10:27:04;3.50;;;2.20;;
45328;SDS011;31063;48.356;10.896;2022-10-17T10:29:31;7.15;;;2.72;;
45328;SDS011;31063;48.356;10.896;2022-10-17T10:32:09;5.18;;;2.30;;
45328;SDS011;31063;48.356;10.896;2022-10-17T10:34:37;4.30;;;2.30;;
45328;SDS011;31063;48.356;10.896;2022-10-17T10:37:16;4.10;;;2.33;;
45328;SDS011;31063;48.356;10.896;2022-10-17T10:42:19;2.88;;;2.05;;
45328;SDS011;31063;48.356;10.896;2022-10-17T10:44:45;4.43;;;2.30;;
45328;SDS011;31063;48.356;10.896;2022-10-17T10:49:43;2.35;;;1.83;;
45328;SDS011;31063;48.356;10.896;2022-10-17T10:52:11;3.33;;;2.50;;
45328;SDS011;31063;48.356;10.896;2022-10-17T10:54:49;9.15;;;2.20;;
45328;SDS011;31063;48.356;10.896;2022-10-17T10:57:19;5.20;;;2.35;;
45328;SDS011;31063;48.356;10.896;2022-10-17T10:59:57;8.13;;;2.35;;
45328;SDS011;31063;48.356;10.896;2022-10-17T11:02:39;2.28;;;1.73;;
45328;SDS011;31063;48.356;10.896;2022-10-17T11:05:15;2.75;;;1.90;;
45328;SDS011;31063;48.356;10.896;2022-10-17T11:07:50;8.73;;;2.20;;
45328;SDS011;31063;48.356;10.896;2022-10-17T11:10:42;3.17;;;2.20;;
45328;SDS011;31063;48.356;10.896;2022-10-17T11:15:44;4.25;;;2.05;;
45328;SDS011;31063;48.356;10.896;2022-10-17T11:20:55;3.15;;;2.20;;
45328;SDS011;31063;48.356;10.896;2022-10-17T11:26:19;4.43;;;2.10;;
45328;SDS011;31063;48.356;10.896;2022-10-17T11:28:54;4.07;;;2.10;;
45328;SDS011;31063;48.356;10.896;2022-10-17T11:31:37;2.40;;;2.00;;
45328;SDS011;31063;48.356;10.896;2022-10-17T11:36:44;4.57;;;2.00;;
45328;SDS011;31063;48.356;10.896;2022-10-17T11:39:14;4.70;;;2.05;;
45328;SDS011;31063;48.356;10.896;2022-10-17T11:41:46;4.88;;;2.25;;
45328;SDS011;31063;48.356;10.896;2022-10-17T11:44:35;4.90;;;2.20;;
45328;SDS011;31063;48.356;10.896;2022-10-17T11:49:38;6.03;;;2.03;;
45328;SDS011;31063;48.356;10.896;2022-10-17T11:55:00;4.18;;;1.88;;
45328;SDS011;31063;48.356;10.896;2022-10-17T11:57:40;4.40;;;2.25;;
45328;SDS011;31063;48.356;10.896;2022-10-17T12:03:03;10.80;;;2.83;;
45328;SDS011;31063;48.356;10.896;2022-10-17T12:08:48;3.45;;;2.40;;
45328;SDS011;31063;48.356;10.896;2022-10-17T12:11:28;4.20;;;2.50;;
45328;SDS011;31063;48.356;10.896;2022-10-17T12:17:02;6.90;;;2.22;;
45328;SDS011;31063;48.356;10.896;2022-10-17T12:19:30;4.03;;;2.75;;
45328;SDS011;31063;48.356;10.896;2022-10-17T12:22:16;7.03;;;2.17;;
45328;SDS011;31063;48.356;10.896;2022-10-17T12:27:31;4.80;;;2.42;;
45328;SDS011;31063;48.356;10.896;2022-10-17T12:30:04;2.97;;;1.98;;
45328;SDS011;31063;48.356;10.896;2022-10-17T12:33:29;3.97;;;2.17;;
45328;SDS011;31063;48.356;10.896;2022-10-17T12:35:35;9.82;;;2.25;;
45328;SDS011;31063;48.356;10.896;2022-10-17T12:38:13;4.70;;;2.00;;
45328;SDS011;31063;48.356;10.896;2022-10-17T12:45:47;3.58;;;2.08;;
45328;SDS011;31063;48.356;10.896;2022-10-17T12:54:13;5.93;;;2.03;;
45328;SDS011;31063;48.356;10.896;2022-10-17T12:56:13;8.20;;;2.10;;
45328;SDS011;31063;48.356;10.896;2022-10-17T12:58:47;3.00;;;1.63;;
45328;SDS011;31063;48.356;10.896;2022-10-17T13:01:18;5.70;;;2.53;;
45328;SDS011;31063;48.356;10.896;2022-10-17T13:03:51;3.83;;;2.05;;
45328;SDS011;31063;48.356;10.896;2022-10-17T13:06:19;5.40;;;2.10;;
45328;SDS011;31063;48.356;10.896;2022-10-17T13:08:49;7.63;;;2.13;;
45328;SDS011;31063;48.356;10.896;2022-10-17T13:11:26;3.80;;;2.10;;
45328;SDS011;31063;48.356;10.896;2022-10-17T13:13:54;2.67;;;1.98;;
45328;SDS011;31063;48.356;10.896;2022-10-17T13:18:59;5.97;;;2.22;;
45328;SDS011;31063;48.356;10.896;2022-10-17T13:21:27;3.63;;;2.20;;
45328;SDS011;31063;48.356;10.896;2022-10-17T13:23:53;6.15;;;2.58;;
45328;SDS011;31063;48.356;10.896;2022-10-17T13:26:20;3.22;;;2.20;;
45328;SDS011;31063;48.356;10.896;2022-10-17T13:31:40;3.17;;;2.20;;
45328;SDS011;31063;48.356;10.896;2022-10-17T13:34:21;4.22;;;2.10;;
45328;SDS011;31063;48.356;10.896;2022-10-17T13:36:50;7.13;;;1.98;;
45328;SDS011;31063;48.356;10.896;2022-10-17T13:39:25;8.20;;;2.38;;
45328;SDS011;31063;48.356;10.896;2022-10-17T13:41:59;3.67;;;1.98;;
45328;SDS011;31063;48.356;10.896;2022-10-17T13:44:26;2.10;;;1.90;;
45328;SDS011;31063;48.356;10.896;2022-10-17T13:46:56;5.05;;;2.55;;
45328;SDS011;31063;48.356;10.896;2022-10-17T13:49:27;3.90;;;2.40;;
45328;SDS011;31063;48.356;10.896;2022-10-17T13:52:05;2.05;;;1.90;;
45328;SDS011;31063;48.356;10.896;2022-10-17T13:54:40;3.92;;;1.83;;
45328;SDS011;31063;48.356;10.896;2022-10-17T13:57:18;3.10;;;1.80;;
45328;SDS011;31063;48.356;10.896;2022-10-17T13:59:50;6.00;;;2.10;;
45328;SDS011;31063;48.356;10.896;2022-10-17T14:02:20;4.63;;;1.85;;
45328;SDS011;31063;48.356;10.896;2022-10-17T14:10:26;3.53;;;2.40;;
45328;SDS011;31063;48.356;10.896;2022-10-17T14:12:55;4.70;;;1.80;;
45328;SDS011;31063;48.356;10.896;2022-10-17T14:18:04;2.05;;;1.75;;
45328;SDS011;31063;48.356;10.896;2022-10-17T14:20:32;2.60;;;2.00;;
45328;SDS011;31063;48.356;10.896;2022-10-17T14:22:58;4.97;;;2.22;;
45328;SDS011;31063;48.356;10.896;2022-10-17T14:25:29;5.88;;;2.33;;
45328;SDS011;31063;48.356;10.896;2022-10-17T14:28:01;3.63;;;2.50;;
45328;SDS011;31063;48.356;10.896;2022-10-17T14:30:38;4.82;;;2.50;;
45328;SDS011;31063;48.356;10.896;2022-10-17T14:33:06;3.55;;;2.28;;
45328;SDS011;31063;48.356;10.896;2022-10-17T14:35:36;4.95;;;2.10;;
45328;SDS011;31063;48.356;10.896;2022-10-17T14:38:04;4.55;;;2.08;;
45328;SDS011;31063;48.356;10.896;2022-10-17T14:40:31;4.60;;;2.20;;
45328;SDS011;31063;48.356;10.896;2022-10-17T14:42:59;5.03;;;2.10;;
45328;SDS011;31063;48.356;10.896;2022-10-17T14:45:31;11.45;;;2.45;;
45328;SDS011;31063;48.356;10.896;2022-10-17T14:48:01;3.25;;;1.70;;
45328;SDS011;31063;48.356;10.896;2022-10-17T14:50:38;3.50;;;2.10;;
45328;SDS011;31063;48.356;10.896;2022-10-17T14:53:05;4.15;;;1.95;;
45328;SDS011;31063;48.356;10.896;2022-10-17T14:55:58;4.70;;;2.10;;
45328;SDS011;31063;48.356;10.896;2022-10-17T14:58:26;5.45;;;1.90;;
45328;SDS011;31063;48.356;10.896;2022-10-17T15:00:53;5.75;;;1.90;;
45328;SDS011;31063;48.356;10.896;2022-10-17T15:03:20;8.13;;;1.80;;
45328;SDS011;31063;48.356;10.896;2022-10-17T15:05:46;4.03;;;1.70;;
45328;SDS011;31063;48.356;10.896;2022-10-17T15:08:13;4.60;;;2.10;;
45328;SDS011;31063;48.356;10.896;2022-10-17T15:10:40;4.80;;;1.80;;
45328;SDS011;31063;48.356;10.896;2022-10-17T15:13:07;4.95;;;2.00;;
45328;SDS011;31063;48.356;10.896;2022-10-17T15:15:34;2.45;;;2.03;;
45328;SDS011;31063;48.356;10.896;2022-10-17T15:18:00;4.25;;;1.85;;
45328;SDS011;31063;48.356;10.896;2022-10-17T15:20:26;5.30;;;2.20;;
45328;SDS011;31063;48.356;10.896;2022-10-17T15:22:54;3.75;;;1.70;;
45328;SDS011;31063;48.356;10.896;2022-10-17T15:25:22;2.90;;;2.10;;
45328;SDS011;31063;48.356;10.896;2022-10-17T15:27:49;5.22;;;1.70;;
45328;SDS011;31063;48.356;10.896;2022-10-17T15:32:40;3.88;;;2.05;;
45328;SDS011;31063;48.356;10.896;2022-10-17T15:35:06;6.40;;;2.13;;
45328;SDS011;31063;48.356;10.896;2022-10-17T15:37:32;2.95;;;1.70;;
45328;SDS011;31063;48.356;10.896;2022-10-17T15:39:58;3.28;;;1.80;;
45328;SDS011;31063;48.356;10.896;2022-10-17T15:42:28;4.60;;;1.80;;
45328;SDS011;31063;48.356;10.896;2022-10-17T15:44:54;9.93;;;1.98;;
45328;SDS011;31063;48.356;10.896;2022-10-17T15:49:50;2.20;;;2.00;;
45328;SDS011;31063;48.356;10.896;2022-10-17T15:52:15;4.05;;;2.22;;
45328;SDS011;31063;48.356;10.896;2022-10-17T15:54:42;5.03;;;2.22;;
45328;SDS011;31063;48.356;10.896;2022-10-17T15:57:09;5.47;;;2.50;;
45328;SDS011;31063;48.356;10.896;2022-10-17T15:59:48;8.85;;;2.60;;
45328;SDS011;31063;48.356;10.896;2022-10-17T16:02:15;5.05;;;2.30;;
45328;SDS011;31063;48.356;10.896;2022-10-17T16:04:42;7.43;;;2.40;;
45328;SDS011;31063;48.356;10.896;2022-10-17T16:07:08;7.20;;;2.38;;
45328;SDS011;31063;48.356;10.896;2022-10-17T16:09:34;6.65;;;2.30;;
45328;SDS011;31063;48.356;10.896;2022-10-17T16:12:01;8.50;;;2.50;;
45328;SDS011;31063;48.356;10.896;2022-10-17T16:14:29;7.03;;;2.60;;
45328;SDS011;31063;48.356;10.896;2022-10-17T16:16:56;7.03;;;2.67;;
45328;SDS011;31063;48.356;10.896;2022-10-17T16:19:23;6.18;;;2.55;;
45328;SDS011;31063;48.356;10.896;2022-10-17T16:21:51;3.55;;;2.45;;
45328;SDS011;31063;48.356;10.896;2022-10-17T16:24:17;8.90;;;2.70;;
45328;SDS011;31063;48.356;10.896;2022-10-17T16:26:43;4.75;;;2.50;;
45328;SDS011;31063;48.356;10.896;2022-10-17T16:29:09;4.05;;;2.50;;
45328;SDS011;31063;48.356;10.896;2022-10-17T16:31:35;5.30;;;3.10;;
45328;SDS011;31063;48.356;10.896;2022-10-17T16:34:04;6.00;;;3.22;;
45328;SDS011;31063;48.356;10.896;2022-10-17T16:38:56;4.25;;;3.08;;
45328;SDS011;31063;48.356;10.896;2022-10-17T16:41:23;5.88;;;3.25;;
45328;SDS011;31063;48.356;10.896;2022-10-17T16:43:51;5.72;;;3.45;;
45328;SDS011;31063;48.356;10.896;2022-10-17T16:46:19;8.27;;;3.63;;
45328;SDS011;31063;48.356;10.896;2022-10-17T16:48:45;5.88;;;3.10;;
45328;SDS011;31063;48.356;10.896;2022-10-17T16:51:12;4.13;;;3.03;;
45328;SDS011;31063;48.356;10.896;2022-10-17T16:53:39;5.45;;;3.10;;
45328;SDS011;31063;48.356;10.896;2022-10-17T16:56:08;6.03;;;3.42;;
45328;SDS011;31063;48.356;10.896;2022-10-17T16:58:38;11.35;;;3.72;;